createdAt,value
2023-03-13T00:00:53.380Z,19.10
2023-03-13T00:03:20.205Z,19.10
2023-03-13T00:05:46.979Z,19.10
2023-03-13T00:08:13.902Z,19.20
2023-03-13T00:10:41.536Z,19.10
2023-03-13T00:13:09.454Z,19.10
2023-03-13T00:15:36.304Z,19.10
2023-03-13T00:18:03.081Z,19.10
2023-03-13T00:20:30.161Z,19.10
2023-03-13T00:22:56.912Z,19.20
2023-03-13T00:25:23.767Z,19.10
2023-03-13T00:27:50.581Z,19.10
2023-03-13T00:30:17.629Z,19.10
2023-03-13T00:32:48.839Z,19.10
2023-03-13T00:35:16.268Z,19.10
2023-03-13T00:37:43.210Z,19.10
2023-03-13T00:40:10.590Z,19.10
2023-03-13T00:42:37.455Z,19.10
2023-03-13T00:45:04.691Z,19.10
2023-03-13T00:47:31.660Z,19.10
2023-03-13T00:49:58.394Z,19.10
2023-03-13T00:52:28.053Z,19.10
2023-03-13T00:54:55.522Z,19.10
2023-03-13T00:57:22.353Z,19.10
2023-03-13T00:59:49.132Z,19.10
2023-03-13T01:02:16.114Z,19.10
2023-03-13T01:04:42.910Z,19.10
2023-03-13T01:07:09.657Z,19.10
2023-03-13T01:09:36.415Z,19.10
2023-03-13T01:12:03.289Z,19.10
2023-03-13T01:14:30.085Z,19.10
2023-03-13T01:16:56.875Z,19.10
2023-03-13T01:19:23.605Z,19.10
2023-03-13T01:21:50.338Z,19.10
2023-03-13T01:24:17.644Z,19.10
2023-03-13T01:26:44.400Z,19.10
2023-03-13T01:29:11.159Z,19.00
2023-03-13T01:31:38.131Z,19.00
2023-03-13T01:34:06.076Z,19.00
2023-03-13T01:36:35.103Z,18.90
2023-03-13T01:39:02.121Z,18.90
2023-03-13T01:41:30.787Z,18.90
2023-03-13T01:43:58.568Z,18.90
2023-03-13T01:46:28.349Z,18.90
2023-03-13T01:49:06.359Z,18.90
2023-03-13T01:51:45.519Z,18.90
2023-03-13T01:54:23.680Z,18.90
2023-03-13T01:56:57.105Z,18.90
2023-03-13T01:59:30.326Z,18.90
2023-03-13T02:02:00.216Z,18.90
2023-03-13T02:04:35.076Z,18.90
2023-03-13T02:07:07.070Z,18.90
2023-03-13T02:09:35.676Z,18.90
2023-03-13T02:12:12.965Z,18.90
2023-03-13T02:14:44.584Z,18.90
2023-03-13T02:17:11.630Z,18.90
2023-03-13T02:19:42.081Z,18.90
2023-03-13T02:22:32.024Z,18.90
2023-03-13T02:25:17.564Z,18.90
2023-03-13T02:27:46.940Z,18.90
2023-03-13T02:30:15.479Z,18.90
2023-03-13T02:32:43.130Z,18.90
2023-03-13T02:35:13.239Z,18.90
2023-03-13T02:37:44.036Z,18.90
2023-03-13T02:40:14.795Z,18.90
2023-03-13T02:42:45.236Z,18.90
2023-03-13T02:45:16.132Z,18.90
2023-03-13T02:47:43.079Z,18.90
2023-03-13T02:50:11.285Z,18.90
2023-03-13T02:52:45.244Z,19.00
2023-03-13T02:55:18.653Z,19.10
2023-03-13T02:57:45.513Z,19.10
2023-03-13T03:00:13.050Z,19.20
2023-03-13T03:02:39.863Z,19.30
2023-03-13T03:05:06.976Z,19.30
2023-03-13T03:07:33.841Z,19.40
2023-03-13T03:10:00.643Z,19.50
2023-03-13T03:12:27.568Z,19.60
2023-03-13T03:14:54.351Z,19.60
2023-03-13T03:17:21.122Z,19.60
2023-03-13T03:19:47.893Z,19.60
2023-03-13T03:22:14.698Z,19.60
2023-03-13T03:24:41.561Z,19.60
2023-03-13T03:27:08.444Z,19.60
2023-03-13T03:29:35.333Z,19.60
2023-03-13T03:32:02.208Z,19.60
2023-03-13T03:34:29.291Z,19.60
2023-03-13T03:36:56.058Z,19.60
2023-03-13T03:39:23.084Z,19.60
2023-03-13T03:41:49.890Z,19.70
2023-03-13T03:44:16.686Z,19.70
2023-03-13T03:46:43.523Z,19.80
2023-03-13T03:49:10.387Z,19.80
2023-03-13T03:51:37.239Z,19.90
2023-03-13T03:54:04.033Z,19.90
2023-03-13T03:56:30.814Z,19.90
2023-03-13T03:58:57.646Z,20.00
2023-03-13T04:01:24.419Z,20.00
2023-03-13T04:03:51.289Z,20.00
2023-03-13T04:06:18.033Z,19.90
2023-03-13T04:08:44.939Z,19.90
2023-03-13T04:11:11.713Z,19.90
2023-03-13T04:13:38.463Z,19.90
2023-03-13T04:16:09.403Z,19.80
2023-03-13T04:18:36.431Z,19.80
2023-03-13T04:21:05.286Z,19.80
2023-03-13T04:23:32.180Z,19.80
2023-03-13T04:25:58.993Z,19.70
2023-03-13T04:28:25.758Z,19.70
2023-03-13T04:30:57.090Z,19.70
2023-03-13T04:33:25.215Z,19.60
2023-03-13T04:35:52.081Z,19.60
2023-03-13T04:38:18.997Z,19.60
2023-03-13T04:40:46.900Z,19.60
2023-03-13T04:43:13.693Z,19.60
2023-03-13T04:45:40.526Z,19.60
2023-03-13T04:48:07.357Z,19.70
2023-03-13T04:50:34.204Z,19.60
2023-03-13T04:53:00.950Z,19.60
2023-03-13T04:55:27.822Z,19.60
2023-03-13T04:57:54.604Z,19.60
2023-03-13T05:00:21.639Z,19.50
2023-03-13T05:02:48.514Z,19.50
2023-03-13T05:05:15.346Z,19.40
2023-03-13T05:07:42.140Z,19.30
2023-03-13T05:10:09.468Z,19.30
2023-03-13T05:12:36.443Z,19.40
2023-03-13T05:15:03.342Z,19.40
2023-03-13T05:17:30.799Z,19.40
2023-03-13T05:19:58.071Z,19.40
2023-03-13T05:22:24.932Z,19.50
2023-03-13T05:24:51.856Z,19.50
2023-03-13T05:27:18.646Z,19.60
2023-03-13T05:29:45.452Z,19.60
2023-03-13T05:32:12.264Z,19.60
2023-03-13T05:34:39.006Z,19.60
2023-03-13T05:37:05.795Z,19.60
2023-03-13T05:39:32.680Z,19.60
2023-03-13T05:41:59.452Z,19.60
2023-03-13T05:44:26.211Z,19.60
2023-03-13T05:46:53.042Z,19.60
2023-03-13T05:49:19.909Z,19.60
2023-03-13T05:51:46.681Z,19.60
2023-03-13T05:54:15.512Z,19.60
2023-03-13T05:56:52.146Z,19.60
2023-03-13T05:59:19.488Z,19.60
2023-03-13T06:01:46.244Z,19.60
2023-03-13T06:04:13.157Z,19.60
2023-03-13T06:06:40.022Z,19.70
2023-03-13T06:09:06.799Z,19.70
2023-03-13T06:11:33.577Z,19.70
2023-03-13T06:14:00.427Z,19.80
2023-03-13T06:16:27.283Z,19.80
2023-03-13T06:18:54.169Z,19.80
2023-03-13T06:21:20.936Z,19.80
2023-03-13T06:23:47.676Z,19.80
2023-03-13T06:26:14.497Z,19.80
2023-03-13T06:28:41.599Z,19.80
2023-03-13T06:31:08.603Z,19.80
2023-03-13T06:33:35.582Z,19.70
2023-03-13T06:36:03.520Z,19.70
2023-03-13T06:38:30.770Z,19.70
2023-03-13T06:40:58.182Z,19.70
2023-03-13T06:43:25.101Z,19.70
2023-03-13T06:45:52.108Z,19.70
2023-03-13T06:48:19.248Z,19.70
2023-03-13T06:50:46.302Z,19.80
2023-03-13T06:53:16.998Z,19.80
2023-03-13T06:55:44.320Z,19.90
2023-03-13T06:58:25.055Z,19.90
2023-03-13T07:00:55.834Z,20.00
2023-03-13T07:03:22.707Z,20.00
2023-03-13T07:05:54.977Z,20.10
2023-03-13T07:08:21.798Z,20.10
2023-03-13T07:10:52.243Z,20.10
2023-03-13T07:13:21.601Z,20.10
2023-03-13T07:15:48.597Z,20.10
2023-03-13T07:18:15.708Z,20.00
2023-03-13T07:20:42.513Z,20.00
2023-03-13T07:23:09.747Z,20.00
2023-03-13T07:25:36.736Z,20.00
2023-03-13T07:28:03.895Z,20.00
2023-03-13T07:30:30.637Z,20.00
2023-03-13T07:32:58.811Z,20.00
2023-03-13T07:35:25.806Z,20.00
2023-03-13T07:37:53.038Z,20.00
2023-03-13T07:40:19.938Z,20.10
2023-03-13T07:42:47.202Z,20.10
2023-03-13T07:45:13.972Z,20.20
2023-03-13T07:47:40.812Z,20.20
2023-03-13T07:50:08.379Z,20.20
2023-03-13T07:52:35.222Z,20.20
2023-03-13T07:55:01.976Z,20.10
2023-03-13T07:57:29.165Z,20.00
2023-03-13T07:59:56.205Z,20.00
2023-03-13T08:02:23.544Z,19.90
2023-03-13T08:04:53.601Z,19.80
2023-03-13T08:07:20.473Z,19.70
2023-03-13T08:09:47.621Z,19.70
2023-03-13T08:12:14.442Z,19.60
2023-03-13T08:14:41.277Z,19.60
2023-03-13T08:17:08.186Z,19.60
2023-03-13T08:19:35.606Z,19.60
2023-03-13T08:22:02.988Z,19.60
2023-03-13T08:24:29.871Z,19.60
2023-03-13T08:26:56.723Z,19.70
2023-03-13T08:29:23.534Z,19.70
2023-03-13T08:31:52.567Z,19.70
2023-03-13T08:34:19.794Z,19.70
2023-03-13T08:36:46.891Z,19.80
2023-03-13T08:39:18.565Z,19.80
2023-03-13T08:41:45.490Z,19.80
2023-03-13T08:44:14.502Z,19.80
2023-03-13T08:46:41.622Z,19.80
2023-03-13T08:49:08.921Z,19.80
2023-03-13T08:51:35.988Z,19.80
2023-03-13T08:54:04.904Z,19.80
2023-03-13T08:56:32.262Z,19.70
2023-03-13T08:59:01.938Z,19.70
2023-03-13T09:01:31.189Z,19.70
2023-03-13T09:04:01.268Z,19.70
2023-03-13T09:06:30.127Z,19.70
2023-03-13T09:08:58.176Z,19.70
2023-03-13T09:11:25.405Z,19.70
2023-03-13T09:13:52.671Z,19.70
2023-03-13T09:16:24.519Z,19.80
2023-03-13T09:18:52.652Z,19.80
2023-03-13T09:21:25.414Z,19.90
2023-03-13T09:23:52.397Z,19.90
2023-03-13T09:26:22.775Z,19.90
2023-03-13T09:28:51.285Z,19.90
2023-03-13T09:31:24.369Z,20.00
2023-03-13T09:33:51.618Z,20.00
2023-03-13T09:36:22.122Z,19.90
2023-03-13T09:38:54.877Z,19.90
2023-03-13T09:41:25.158Z,19.90
2023-03-13T09:44:22.780Z,19.90
2023-03-13T09:46:54.566Z,19.90
2023-03-13T09:49:35.222Z,20.00
2023-03-13T09:52:14.948Z,20.00
2023-03-13T09:54:50.794Z,20.10
2023-03-13T09:57:17.586Z,20.10
2023-03-13T09:59:52.629Z,20.20
2023-03-13T10:02:25.881Z,20.20
2023-03-13T10:05:00.699Z,20.30
2023-03-13T10:07:27.503Z,20.30
2023-03-13T10:09:54.287Z,20.30
2023-03-13T10:12:27.543Z,20.30
2023-03-13T10:15:15.997Z,20.30
2023-03-13T10:17:44.793Z,20.30
2023-03-13T10:20:23.317Z,20.30
2023-03-13T10:23:27.537Z,20.30
2023-03-13T10:25:54.293Z,20.40
2023-03-13T10:28:22.572Z,20.40
2023-03-13T10:30:55.699Z,20.50
2023-03-13T10:33:28.614Z,20.50
2023-03-13T10:36:04.060Z,20.60
2023-03-13T10:38:34.412Z,20.60
2023-03-13T10:41:10.652Z,20.60
2023-03-13T10:43:49.184Z,20.60
2023-03-13T10:46:25.658Z,20.70
2023-03-13T10:48:53.994Z,20.80
2023-03-13T10:51:23.187Z,20.80
2023-03-13T10:53:51.546Z,20.80
2023-03-13T10:56:28.565Z,20.90
2023-03-13T10:58:56.500Z,20.90
2023-03-13T11:01:29.246Z,21.00
2023-03-13T11:04:00.229Z,21.00
2023-03-13T11:06:37.739Z,21.10
2023-03-13T11:09:16.370Z,21.10
2023-03-13T11:11:48.926Z,21.20
2023-03-13T11:14:19.379Z,21.20
2023-03-13T11:16:52.074Z,21.20
2023-03-13T11:19:24.688Z,21.20
2023-03-13T11:22:06.829Z,21.30
2023-03-13T11:25:03.570Z,21.30
2023-03-13T11:27:41.714Z,21.30
2023-03-13T11:30:35.608Z,21.40
2023-03-13T11:33:09.117Z,21.40
2023-03-13T11:35:54.430Z,21.40
2023-03-13T11:38:24.249Z,21.40
2023-03-13T11:41:09.164Z,21.40
2023-03-13T11:44:06.790Z,21.30
2023-03-13T11:46:48.136Z,21.30
2023-03-13T11:49:41.228Z,21.30
2023-03-13T11:52:27.573Z,21.30
2023-03-13T11:55:32.225Z,21.30
2023-03-13T11:58:17.629Z,21.40
2023-03-13T12:01:04.023Z,21.40
2023-03-13T12:03:42.383Z,21.40
2023-03-13T12:06:28.205Z,21.40
2023-03-13T12:09:34.657Z,21.40
2023-03-13T12:12:05.198Z,21.50
2023-03-13T12:14:46.885Z,21.50
2023-03-13T12:17:34.564Z,21.50
2023-03-13T12:20:27.331Z,21.50
2023-03-13T12:22:58.672Z,21.50
2023-03-13T12:25:30.408Z,21.50
2023-03-13T12:28:18.679Z,21.50
2023-03-13T12:30:52.621Z,21.40
2023-03-13T12:33:26.625Z,21.40
2023-03-13T12:36:31.653Z,21.40
2023-03-13T12:39:31.039Z,21.40
2023-03-13T12:42:12.419Z,21.40
2023-03-13T12:44:40.187Z,21.50
2023-03-13T12:47:32.248Z,21.50
2023-03-13T12:50:19.318Z,21.60
2023-03-13T12:53:10.206Z,21.60
2023-03-13T12:55:44.362Z,21.60
2023-03-13T12:58:22.249Z,21.70
2023-03-13T13:00:51.890Z,21.80
2023-03-13T13:03:39.110Z,21.80
2023-03-13T13:06:13.410Z,21.90
2023-03-13T13:08:48.553Z,21.90
2023-03-13T13:11:34.155Z,22.00
2023-03-13T13:14:16.875Z,22.00
2023-03-13T13:17:16.589Z,22.00
2023-03-13T13:19:46.102Z,22.00
2023-03-13T13:22:37.817Z,22.00
2023-03-13T13:25:10.690Z,22.00
2023-03-13T13:27:37.491Z,22.00
2023-03-13T13:30:24.197Z,22.00
2023-03-13T13:32:54.728Z,22.00
2023-03-13T13:35:35.467Z,22.00
2023-03-13T13:38:17.636Z,22.10
2023-03-13T13:40:58.871Z,22.10
2023-03-13T13:43:29.118Z,22.00
2023-03-13T13:46:31.176Z,22.00
2023-03-13T13:49:14.208Z,22.00
2023-03-13T13:51:42.575Z,21.90
2023-03-13T13:54:18.253Z,21.90
2023-03-13T13:57:06.984Z,21.80
2023-03-13T13:59:42.662Z,21.70
2023-03-13T14:02:10.627Z,21.60
2023-03-13T14:05:01.725Z,21.60
2023-03-13T14:07:32.524Z,21.50
2023-03-13T14:10:28.324Z,21.50
2023-03-13T14:12:57.664Z,21.50
2023-03-13T14:15:26.221Z,21.40
2023-03-13T14:18:17.775Z,21.40
2023-03-13T14:20:56.160Z,21.40
2023-03-13T14:23:49.286Z,21.30
2023-03-13T14:26:20.197Z,21.30
2023-03-13T14:28:55.468Z,21.20
2023-03-13T14:31:30.317Z,21.20
2023-03-13T14:33:59.533Z,21.10
2023-03-13T14:36:27.455Z,21.00
2023-03-13T14:39:01.450Z,20.90
2023-03-13T14:41:37.352Z,20.90
2023-03-13T14:44:16.856Z,20.80
2023-03-13T14:46:44.872Z,20.80
2023-03-13T14:49:25.603Z,20.80
2023-03-13T14:52:14.117Z,20.80
2023-03-13T14:55:17.088Z,20.80
2023-03-13T14:57:59.557Z,20.80
2023-03-13T15:00:42.382Z,20.80
2023-03-13T15:03:20.253Z,20.80
2023-03-13T15:06:01.564Z,20.80
2023-03-13T15:08:29.648Z,20.80
2023-03-13T15:10:57.220Z,20.80
2023-03-13T15:13:36.102Z,20.80
2023-03-13T15:16:12.387Z,20.80
2023-03-13T15:18:39.087Z,20.80
2023-03-13T15:21:17.190Z,20.80
2023-03-13T15:23:52.453Z,20.70
2023-03-13T15:26:19.311Z,20.70
2023-03-13T15:28:46.180Z,20.70
2023-03-13T15:31:14.443Z,20.80
2023-03-13T15:33:42.967Z,20.80
2023-03-13T15:36:10.605Z,20.80
2023-03-13T15:38:37.856Z,20.80
2023-03-13T15:41:04.995Z,20.80
2023-03-13T15:43:31.876Z,20.80
2023-03-13T15:45:58.890Z,20.80
2023-03-13T15:48:28.016Z,20.80
2023-03-13T15:51:00.525Z,20.80
2023-03-13T15:53:37.518Z,20.80
2023-03-13T15:56:19.856Z,20.80
2023-03-13T15:58:48.357Z,20.90
2023-03-13T16:01:17.193Z,20.90
2023-03-13T16:03:44.470Z,20.90
2023-03-13T16:06:30.725Z,20.90
2023-03-13T16:09:00.362Z,20.90
2023-03-13T16:11:28.664Z,20.90
2023-03-13T16:13:57.488Z,20.90
2023-03-13T16:16:36.845Z,20.90
2023-03-13T16:19:04.317Z,20.90
2023-03-13T16:21:34.638Z,20.90
2023-03-13T16:24:01.685Z,20.90
2023-03-13T16:26:31.552Z,20.90
2023-03-13T16:28:58.707Z,20.90
2023-03-13T16:31:31.131Z,20.90
2023-03-13T16:33:59.684Z,20.90
2023-03-13T16:36:31.046Z,20.90
2023-03-13T16:38:59.579Z,20.90
2023-03-13T16:41:27.862Z,20.90
2023-03-13T16:43:55.780Z,20.90
2023-03-13T16:46:29.927Z,20.90
2023-03-13T16:48:58.421Z,20.80
2023-03-13T16:51:26.974Z,20.80
2023-03-13T16:53:55.304Z,20.80
2023-03-13T16:56:35.391Z,20.80
2023-03-13T16:59:12.952Z,20.80
2023-03-13T17:01:40.161Z,20.80
2023-03-13T17:04:07.186Z,20.80
2023-03-13T17:06:36.494Z,20.80
2023-03-13T17:09:04.692Z,20.80
2023-03-13T17:11:31.540Z,20.80
2023-03-13T17:13:59.459Z,20.80
2023-03-13T17:16:34.422Z,20.80
2023-03-13T17:19:02.319Z,20.80
2023-03-13T17:21:32.023Z,20.80
2023-03-13T17:24:00.634Z,20.80
2023-03-13T17:26:31.276Z,20.80
2023-03-13T17:28:58.774Z,20.70
2023-03-13T17:31:26.932Z,20.70
2023-03-13T17:33:54.103Z,20.70
2023-03-13T17:36:29.400Z,20.70
2023-03-13T17:38:58.886Z,20.70
2023-03-13T17:41:29.080Z,20.70
2023-03-13T17:43:56.187Z,20.70
2023-03-13T17:46:44.790Z,20.70
2023-03-13T17:49:16.594Z,20.70
2023-03-13T17:51:46.252Z,20.60
2023-03-13T17:54:15.785Z,20.50
2023-03-13T17:56:43.902Z,20.40
2023-03-13T17:59:17.168Z,20.30
2023-03-13T18:01:45.019Z,20.20
2023-03-13T18:04:12.066Z,20.10
2023-03-13T18:06:42.793Z,20.00
2023-03-13T18:09:18.308Z,20.00
2023-03-13T18:11:45.408Z,19.90
2023-03-13T18:14:12.395Z,19.90
2023-03-13T18:16:47.787Z,19.90
2023-03-13T18:19:15.863Z,19.90
2023-03-13T18:21:44.856Z,19.90
2023-03-13T18:24:12.936Z,19.90
2023-03-13T18:26:41.960Z,19.80
2023-03-13T18:29:20.203Z,19.80
2023-03-13T18:31:48.136Z,19.80
2023-03-13T18:34:15.232Z,19.80
2023-03-13T18:36:42.341Z,19.70
2023-03-13T18:39:14.437Z,19.70
2023-03-13T18:41:41.228Z,19.60
2023-03-13T18:44:07.992Z,19.60
2023-03-13T18:46:34.876Z,19.60
2023-03-13T18:49:01.661Z,19.60
2023-03-13T18:51:28.927Z,19.60
2023-03-13T18:53:55.851Z,19.70
2023-03-13T18:56:29.395Z,19.80
2023-03-13T18:58:57.314Z,19.90
2023-03-13T19:01:29.893Z,20.00
2023-03-13T19:03:58.488Z,20.10
2023-03-13T19:06:29.750Z,20.10
2023-03-13T19:08:59.208Z,20.20
2023-03-13T19:11:31.809Z,20.30
2023-03-13T19:13:59.339Z,20.30
2023-03-13T19:16:31.818Z,20.40
2023-03-13T19:18:58.850Z,20.50
2023-03-13T19:21:28.348Z,20.50
2023-03-13T19:23:55.956Z,20.60
2023-03-13T19:26:35.229Z,20.60
2023-03-13T19:29:03.069Z,20.70
2023-03-13T19:31:30.048Z,20.70
2023-03-13T19:33:56.808Z,20.70
2023-03-13T19:36:27.337Z,20.70
2023-03-13T19:38:54.440Z,20.80
2023-03-13T19:41:21.191Z,20.80
2023-03-13T19:43:47.965Z,20.80
2023-03-13T19:46:22.582Z,20.80
2023-03-13T19:48:51.647Z,20.80
2023-03-13T19:51:18.419Z,20.80
2023-03-13T19:53:45.438Z,20.80
2023-03-13T19:56:27.425Z,20.70
2023-03-13T19:59:05.880Z,20.80
2023-03-13T20:01:33.216Z,20.70
2023-03-13T20:04:00.088Z,20.70
2023-03-13T20:06:32.091Z,20.70
2023-03-13T20:09:01.651Z,20.70
2023-03-13T20:11:29.309Z,20.70
2023-03-13T20:13:56.841Z,20.70
2023-03-13T20:16:25.531Z,20.70
2023-03-13T20:18:52.489Z,20.70
2023-03-13T20:21:19.282Z,20.70
2023-03-13T20:23:48.791Z,20.70
2023-03-13T20:26:17.742Z,20.60
2023-03-13T20:28:46.775Z,20.70
2023-03-13T20:31:14.505Z,20.70
2023-03-13T20:33:41.316Z,20.60
2023-03-13T20:36:10.797Z,20.60
2023-03-13T20:38:39.092Z,20.60
2023-03-13T20:41:06.536Z,20.70
2023-03-13T20:43:34.720Z,20.70
2023-03-13T20:46:02.300Z,20.70
2023-03-13T20:48:29.730Z,20.70
2023-03-13T20:50:58.324Z,20.70
2023-03-13T20:53:26.107Z,20.60
2023-03-13T20:55:54.430Z,20.60
2023-03-13T20:58:21.286Z,20.60
2023-03-13T21:00:49.489Z,20.60
2023-03-13T21:03:17.368Z,20.50
2023-03-13T21:05:45.195Z,20.50
2023-03-13T21:08:12.106Z,20.40
2023-03-13T21:10:39.870Z,20.40
2023-03-13T21:13:07.034Z,20.30
2023-03-13T21:15:34.180Z,20.30
2023-03-13T21:18:01.932Z,20.30
2023-03-13T21:20:29.959Z,20.30
2023-03-13T21:22:57.099Z,20.20
2023-03-13T21:25:24.164Z,20.20
2023-03-13T21:27:51.037Z,20.20
2023-03-13T21:30:20.132Z,20.20
2023-03-13T21:32:47.893Z,20.20
2023-03-13T21:35:16.491Z,20.20
2023-03-13T21:37:43.988Z,20.20
2023-03-13T21:40:11.865Z,20.10
2023-03-13T21:42:38.697Z,20.10
2023-03-13T21:45:06.636Z,20.10
2023-03-13T21:47:36.986Z,20.10
2023-03-13T21:50:10.024Z,20.10
2023-03-13T21:52:40.802Z,20.10
2023-03-13T21:55:11.493Z,20.10
2023-03-13T21:57:38.631Z,20.20
2023-03-13T22:00:08.261Z,20.20
2023-03-13T22:02:36.343Z,20.20
2023-03-13T22:05:04.605Z,20.20
2023-03-13T22:07:31.664Z,20.20
2023-03-13T22:09:58.627Z,20.20
2023-03-13T22:12:25.797Z,20.20
2023-03-13T22:14:54.128Z,20.20
2023-03-13T22:17:22.147Z,20.20
2023-03-13T22:19:49.605Z,20.20
2023-03-13T22:22:17.349Z,20.10
2023-03-13T22:24:44.138Z,20.10
2023-03-13T22:27:11.173Z,20.10
2023-03-13T22:29:38.006Z,20.10
2023-03-13T22:32:05.308Z,20.00
2023-03-13T22:34:32.172Z,20.00
2023-03-13T22:36:59.118Z,20.00
2023-03-13T22:39:25.923Z,20.00
2023-03-13T22:41:52.689Z,20.00
2023-03-13T22:44:19.738Z,20.00
2023-03-13T22:46:46.529Z,19.90
2023-03-13T22:49:13.341Z,19.90
2023-03-13T22:51:40.132Z,19.90
2023-03-13T22:54:06.978Z,19.90
2023-03-13T22:56:33.779Z,19.90
2023-03-13T22:59:00.873Z,19.90
2023-03-13T23:01:27.666Z,19.90
2023-03-13T23:03:55.001Z,19.90
2023-03-13T23:06:24.022Z,19.90
2023-03-13T23:08:50.943Z,19.90
2023-03-13T23:11:18.479Z,19.90
2023-03-13T23:13:45.321Z,19.90
2023-03-13T23:16:12.970Z,20.00
2023-03-13T23:18:39.958Z,20.00
2023-03-13T23:21:10.054Z,20.00
2023-03-13T23:23:37.315Z,20.00
2023-03-13T23:26:07.038Z,20.00
2023-03-13T23:28:38.285Z,20.00
2023-03-13T23:31:13.285Z,20.00
2023-03-13T23:33:40.383Z,20.00
2023-03-13T23:36:09.463Z,20.00
2023-03-13T23:38:36.303Z,20.00
2023-03-13T23:41:08.547Z,20.00
2023-03-13T23:43:35.832Z,20.00
2023-03-13T23:46:03.093Z,20.10
2023-03-13T23:48:30.194Z,20.10
2023-03-13T23:50:56.999Z,20.10
2023-03-13T23:53:24.099Z,20.10
2023-03-13T23:55:58.525Z,20.10
2023-03-13T23:58:25.500Z,20.10
